createdAt,value
2022-09-29T00:00:42.468Z,3.70
2022-09-29T00:06:04.227Z,3.40
2022-09-29T00:11:13.888Z,3.80
2022-09-29T00:16:17.591Z,4.40
2022-09-29T00:21:21.333Z,4.20
2022-09-29T00:26:25.264Z,3.40
2022-09-29T00:31:32.950Z,4.00
2022-09-29T00:36:36.379Z,4.50
2022-09-29T00:41:42.426Z,4.40
2022-09-29T00:46:48.947Z,4.70
2022-09-29T00:52:05.804Z,4.20
2022-09-29T00:57:13.288Z,3.90
2022-09-29T01:02:19.759Z,4.10
2022-09-29T01:07:25.273Z,4.60
2022-09-29T01:12:28.757Z,3.30
2022-09-29T01:17:32.370Z,4.00
2022-09-29T01:22:53.805Z,3.10
2022-09-29T01:28:36.537Z,3.60
2022-09-29T01:34:28.374Z,3.80
2022-09-29T01:40:14.921Z,3.90
2022-09-29T01:45:32.703Z,3.80
2022-09-29T01:50:46.244Z,3.90
2022-09-29T01:56:00.901Z,3.50
2022-09-29T02:01:12.034Z,4.30
2022-09-29T02:06:24.517Z,3.00
2022-09-29T02:11:30.876Z,2.90
2022-09-29T02:16:43.021Z,2.30
2022-09-29T02:21:47.590Z,2.90
2022-09-29T02:26:52.707Z,3.60
2022-09-29T02:32:01.610Z,4.20
2022-09-29T02:37:32.923Z,3.60
2022-09-29T02:43:23.349Z,3.70
2022-09-29T02:48:56.450Z,3.60
2022-09-29T02:54:19.299Z,3.80
2022-09-29T02:59:38.097Z,4.20
2022-09-29T03:04:41.509Z,5.80
2022-09-29T03:09:45.399Z,5.00
2022-09-29T03:14:48.747Z,4.70
2022-09-29T03:19:52.055Z,5.20
2022-09-29T03:24:55.369Z,3.60
2022-09-29T03:29:58.986Z,4.50
2022-09-29T03:35:02.446Z,5.50
2022-09-29T03:40:06.948Z,3.60
2022-09-29T03:45:10.919Z,4.40
2022-09-29T03:50:14.518Z,4.40
2022-09-29T03:55:18.002Z,4.50
2022-09-29T04:00:21.314Z,4.50
2022-09-29T04:05:25.041Z,4.80
2022-09-29T04:10:28.448Z,4.60
2022-09-29T04:15:32.846Z,4.20
2022-09-29T04:20:38.249Z,4.10
2022-09-29T04:25:41.900Z,6.20
2022-09-29T04:30:45.278Z,5.10
2022-09-29T04:35:48.586Z,5.30
2022-09-29T04:40:52.399Z,3.00
2022-09-29T04:46:04.263Z,5.50
2022-09-29T04:51:08.459Z,5.80
2022-09-29T04:56:12.196Z,5.10
2022-09-29T05:01:16.006Z,6.70
2022-09-29T05:06:19.615Z,11.10
2022-09-29T05:11:23.134Z,9.40
2022-09-29T05:16:27.342Z,11.10
2022-09-29T05:21:30.814Z,12.00
2022-09-29T05:26:34.194Z,10.00
2022-09-29T05:31:37.696Z,12.40
2022-09-29T05:36:41.170Z,12.00
2022-09-29T05:41:44.538Z,12.00
2022-09-29T05:46:48.393Z,11.30
2022-09-29T05:51:51.878Z,11.20
2022-09-29T05:56:56.409Z,9.70
2022-09-29T06:01:59.822Z,9.60
2022-09-29T06:07:03.246Z,6.90
2022-09-29T06:12:06.981Z,5.00
2022-09-29T06:17:10.694Z,6.90
2022-09-29T06:22:21.478Z,6.90
2022-09-29T06:27:26.334Z,6.20
2022-09-29T06:32:29.734Z,4.80
2022-09-29T06:37:36.225Z,5.10
2022-09-29T06:42:39.639Z,7.30
2022-09-29T06:47:42.948Z,5.50
2022-09-29T06:52:56.325Z,5.90
2022-09-29T06:58:04.834Z,5.00
2022-09-29T07:03:09.307Z,4.00
2022-09-29T07:08:12.984Z,5.10
2022-09-29T07:13:16.707Z,4.20
2022-09-29T07:18:20.019Z,3.70
2022-09-29T07:23:23.431Z,3.40
2022-09-29T07:28:27.113Z,3.40
2022-09-29T07:33:38.406Z,3.50
2022-09-29T07:38:46.576Z,3.70
2022-09-29T07:43:50.091Z,2.90
2022-09-29T07:48:53.407Z,3.90
2022-09-29T07:54:01.854Z,3.30
2022-09-29T07:59:05.762Z,3.50
2022-09-29T08:04:09.494Z,5.60
2022-09-29T08:09:14.307Z,4.40
2022-09-29T08:14:17.748Z,4.30
2022-09-29T08:19:21.316Z,3.90
2022-09-29T08:24:25.492Z,3.40
2022-09-29T08:29:36.419Z,3.60
2022-09-29T08:34:45.296Z,3.70
2022-09-29T08:39:48.639Z,3.30
2022-09-29T08:45:20.007Z,2.80
2022-09-29T08:50:39.295Z,3.30
2022-09-29T08:56:08.283Z,2.90
2022-09-29T09:01:17.434Z,2.70
2022-09-29T09:07:17.394Z,2.70
2022-09-29T09:12:39.751Z,2.80
2022-09-29T09:18:01.907Z,2.70
2022-09-29T09:23:14.023Z,2.00
2022-09-29T09:28:28.396Z,2.40
2022-09-29T09:33:42.455Z,2.50
2022-09-29T09:38:51.916Z,3.40
2022-09-29T09:44:08.470Z,2.50
2022-09-29T09:49:11.655Z,2.90
2022-09-29T09:54:28.365Z,2.30
2022-09-29T10:00:14.790Z,2.60
2022-09-29T10:05:24.540Z,3.20
2022-09-29T10:10:34.446Z,2.50
2022-09-29T10:15:59.955Z,2.90
2022-09-29T10:21:03.772Z,2.60
2022-09-29T10:26:33.400Z,3.20
2022-09-29T10:31:37.326Z,3.20
2022-09-29T10:37:38.398Z,2.90
2022-09-29T10:42:47.137Z,3.80
2022-09-29T10:47:59.762Z,3.20
2022-09-29T10:53:38.511Z,4.00
2022-09-29T10:59:02.939Z,4.00
2022-09-29T11:04:31.270Z,4.10
2022-09-29T11:09:45.215Z,4.80
2022-09-29T11:14:49.399Z,6.30
2022-09-29T11:20:02.541Z,5.10
2022-09-29T11:25:08.620Z,7.30
2022-09-29T11:30:24.189Z,5.80
2022-09-29T11:36:00.100Z,9.10
2022-09-29T11:41:25.830Z,7.30
2022-09-29T11:46:31.911Z,6.90
2022-09-29T11:52:24.779Z,6.70
2022-09-29T11:57:56.968Z,6.80
2022-09-29T12:03:19.174Z,6.80
2022-09-29T12:08:32.673Z,7.60
2022-09-29T12:14:44.056Z,8.20
2022-09-29T12:20:05.915Z,6.90
2022-09-29T12:25:17.600Z,6.00
2022-09-29T12:30:38.257Z,5.60
2022-09-29T12:35:50.986Z,6.50
2022-09-29T12:41:24.404Z,6.20
2022-09-29T12:46:55.338Z,8.00
2022-09-29T12:52:01.028Z,5.40
2022-09-29T12:57:06.859Z,6.10
2022-09-29T13:02:31.604Z,5.60
2022-09-29T13:08:33.805Z,7.70
2022-09-29T13:14:25.453Z,5.80
2022-09-29T13:20:07.312Z,5.30
2022-09-29T13:25:35.869Z,5.10
2022-09-29T13:30:40.351Z,5.90
2022-09-29T13:35:48.181Z,5.10
2022-09-29T13:41:17.244Z,3.80
2022-09-29T13:46:33.747Z,2.60
2022-09-29T13:51:53.050Z,4.40
2022-09-29T13:57:15.002Z,4.10
2022-09-29T14:03:01.394Z,4.40
2022-09-29T14:08:18.454Z,5.50
2022-09-29T14:13:45.217Z,5.20
2022-09-29T14:19:09.415Z,4.40
2022-09-29T14:24:37.737Z,5.00
2022-09-29T14:29:54.029Z,2.80
2022-09-29T14:34:57.748Z,4.70
2022-09-29T14:40:20.009Z,4.30
2022-09-29T14:45:42.263Z,4.60
2022-09-29T14:51:14.448Z,3.80
2022-09-29T14:56:27.181Z,4.50
2022-09-29T15:01:37.774Z,5.50
2022-09-29T15:06:50.607Z,4.90
2022-09-29T15:12:03.233Z,4.70
2022-09-29T15:17:54.974Z,5.80
2022-09-29T15:23:35.882Z,6.70
2022-09-29T15:28:41.854Z,8.00
2022-09-29T15:33:48.026Z,7.60
2022-09-29T15:39:02.755Z,5.50
2022-09-29T15:44:19.915Z,6.90
2022-09-29T15:49:30.759Z,6.00
2022-09-29T15:54:42.024Z,7.10
2022-09-29T15:59:54.446Z,7.00
2022-09-29T16:05:04.255Z,7.70
2022-09-29T16:10:21.445Z,7.10
2022-09-29T16:15:33.703Z,6.30
2022-09-29T16:20:37.819Z,6.20
2022-09-29T16:25:41.215Z,7.00
2022-09-29T16:31:03.998Z,7.40
2022-09-29T16:36:20.294Z,7.00
2022-09-29T16:41:41.424Z,6.60
2022-09-29T16:47:02.859Z,7.80
2022-09-29T16:52:17.949Z,11.00
2022-09-29T16:57:34.578Z,6.80
2022-09-29T17:02:38.137Z,7.80
2022-09-29T17:07:45.093Z,10.70
2022-09-29T17:12:48.610Z,14.60
2022-09-29T17:17:53.758Z,14.80
2022-09-29T17:22:59.356Z,11.60
2022-09-29T17:28:12.625Z,13.10
2022-09-29T17:33:18.800Z,14.00
2022-09-29T17:38:22.364Z,15.10
2022-09-29T17:43:26.495Z,14.70
2022-09-29T17:48:31.107Z,13.90
2022-09-29T17:53:34.455Z,12.30
2022-09-29T17:58:37.779Z,13.60
2022-09-29T18:03:41.791Z,16.80
2022-09-29T18:08:45.658Z,16.40
2022-09-29T18:13:50.505Z,12.70
2022-09-29T18:18:58.573Z,13.30
2022-09-29T18:24:02.954Z,11.30
2022-09-29T18:29:17.283Z,11.60
2022-09-29T18:34:23.513Z,11.60
2022-09-29T18:39:26.888Z,11.20
2022-09-29T18:44:33.637Z,11.90
2022-09-29T18:49:37.088Z,12.60
2022-09-29T18:54:40.456Z,13.30
2022-09-29T18:59:44.018Z,12.00
2022-09-29T19:04:53.081Z,10.80
2022-09-29T19:09:57.508Z,12.60
2022-09-29T19:15:01.278Z,13.30
2022-09-29T19:20:06.202Z,15.10
2022-09-29T19:25:20.237Z,12.10
2022-09-29T19:30:26.621Z,12.90
2022-09-29T19:35:30.243Z,13.20
2022-09-29T19:40:35.223Z,12.80
2022-09-29T19:45:39.074Z,12.80
2022-09-29T19:51:02.299Z,11.40
2022-09-29T19:56:12.101Z,11.30
2022-09-29T20:01:15.518Z,10.60
2022-09-29T20:06:19.096Z,10.50
2022-09-29T20:11:22.807Z,10.60
2022-09-29T20:16:26.288Z,13.10
2022-09-29T20:21:30.776Z,15.30
2022-09-29T20:26:34.276Z,14.80
2022-09-29T20:31:38.872Z,15.70
2022-09-29T20:36:42.437Z,13.50
2022-09-29T20:41:46.670Z,14.10
2022-09-29T20:46:51.398Z,14.50
2022-09-29T20:51:55.649Z,14.60
2022-09-29T20:56:59.061Z,13.70
2022-09-29T21:02:02.582Z,12.20
2022-09-29T21:07:26.167Z,15.50
2022-09-29T21:12:30.087Z,15.00
2022-09-29T21:17:33.404Z,16.20
2022-09-29T21:22:37.438Z,17.70
2022-09-29T21:27:41.674Z,15.80
2022-09-29T21:32:45.588Z,17.30
2022-09-29T21:37:49.218Z,15.60
2022-09-29T21:42:52.607Z,13.40
2022-09-29T21:48:08.429Z,12.80
2022-09-29T21:53:13.496Z,11.20
2022-09-29T21:58:16.756Z,12.70
2022-09-29T22:03:20.417Z,15.10
2022-09-29T22:08:24.231Z,11.70
2022-09-29T22:13:27.530Z,12.90
2022-09-29T22:18:41.278Z,12.50
2022-09-29T22:23:46.555Z,9.70
2022-09-29T22:28:51.757Z,10.80
2022-09-29T22:34:02.192Z,11.30
2022-09-29T22:39:07.293Z,9.60
2022-09-29T22:44:11.088Z,10.50
2022-09-29T22:49:14.717Z,9.20
2022-09-29T22:54:18.410Z,9.20
2022-09-29T22:59:22.557Z,11.90
2022-09-29T23:04:26.492Z,10.70
2022-09-29T23:09:30.023Z,10.90
2022-09-29T23:14:33.498Z,10.00
2022-09-29T23:19:37.015Z,10.90
2022-09-29T23:24:42.159Z,10.50
2022-09-29T23:29:45.484Z,9.60
2022-09-29T23:34:48.843Z,8.70
2022-09-29T23:39:53.172Z,10.50
2022-09-29T23:44:56.537Z,10.10
2022-09-29T23:49:59.853Z,9.90
2022-09-29T23:55:03.369Z,9.70
